CYUL/YUL METAR and TAF weather

Enter ICAO airport designator
Station Type Date Time Source
CYUL METAR 2019/10/15 09:00 UTC NOAA

CYUL 150900Z 24009KT 15SM SKC 04/01 A3006 RMK SLP183


Station Type Date Time Source
CYUL Decoded METAR 2019/10/15 09:00 UTC NOAA

Montreal / Pierre Elliot Trudeau International Airport, Que, Canada (CYUL) 45-28N 073-45W 36M
Oct 15, 2019 - 05:00 AM EDT / 2019.10.15 0900 UTC
Wind: from the WSW (240 degrees) at 10 MPH (9 KT):0
Visibility: 15 mile(s):0
Sky conditions: clear
Temperature: 39 F (4 C)
Dew Point: 33 F (1 C)
Relative Humidity: 80%
Pressure (altimeter): 30.06 in. Hg (1017 hPa)
ob: CYUL 150900Z 24009KT 15SM SKC 04/01 A3006 RMK SLP183
cycle: 9

Station Type Date Time Source
CYUL TAF 2019/10/15 09:42 UTC NOAA

TAF CYUL 150838Z 1509/1606 25010KT P6SM FEW080
FM151500 23010G20KT P6SM FEW040 SCT170
BECMG 1521/1523 23010KT
BECMG 1600/1602 VRB03KT
RMK NXT FCST BY 151200Z

Example: see airport list